Time;durP1;ratioP1;P1;durP2;ratioP2;P2;SDS_P1;SDS_P2;PMS_P1;PMS_P2;Temp;Humidity;BMP_temperature;BMP_pressure;BME280_temperature;BME280_humidity;BME280_pressure;Samples;Min_cycle;Max_cycle;Signal;HPM_P1;HPM_P2
2023/04/23 00:00:35;;;;;;;1.17;1.08;;;;;;;;;;5017781;28;20278;-86
2023/04/23 00:03:09;;;;;;;1.65;1.35;;;;;;;;;;5018184;28;20269;-87
2023/04/23 00:05:37;;;;;;;1.13;1.13;;;;;;;;;;5017780;28;20261;-86
2023/04/23 00:08:05;;;;;;;1.30;1.20;;;;;;;;;;5018168;28;20199;-86
2023/04/23 00:10:33;;;;;;;1.35;1.27;;;;;;;;;;5018613;28;20256;-86
2023/04/23 00:13:03;;;;;;;1.27;1.17;;;;;;;;;;5017858;28;20242;-86
2023/04/23 00:15:32;;;;;;;1.30;1.20;;;;;;;;;;5018128;28;20675;-86
2023/04/23 00:17:59;;;;;;;1.50;1.40;;;;;;;;;;5018159;28;20290;-87
2023/04/23 00:20:28;;;;;;;1.58;1.40;;;;;;;;;;5017815;28;20202;-86
2023/04/23 00:22:55;;;;;;;1.63;1.52;;;;;;;;;;5017592;28;20560;-85
2023/04/23 00:25:23;;;;;;;1.85;1.67;;;;;;;;;;5017632;28;20313;-87
2023/04/23 00:27:50;;;;;;;1.00;1.00;;;;;;;;;;5017997;28;20237;-87
2023/04/23 00:30:18;;;;;;;1.13;1.13;;;;;;;;;;5018020;28;20714;-87
2023/04/23 00:32:46;;;;;;;0.80;0.80;;;;;;;;;;5018404;28;20203;-85
2023/04/23 00:35:13;;;;;;;1.13;1.13;;;;;;;;;;5018304;28;20273;-86
2023/04/23 00:37:43;;;;;;;1.13;1.10;;;;;;;;;;5016994;28;20209;-86
2023/04/23 00:40:11;;;;;;;1.02;1.00;;;;;;;;;;5015939;28;20286;-86
2023/04/23 00:42:40;;;;;;;1.08;1.08;;;;;;;;;;5017224;28;20290;-87
2023/04/23 00:45:09;;;;;;;1.33;1.30;;;;;;;;;;5017603;28;20257;-87
2023/04/23 00:47:36;;;;;;;1.25;1.13;;;;;;;;;;5016462;28;20250;-87
2023/04/23 00:50:05;;;;;;;1.30;1.20;;;;;;;;;;5015573;28;20220;-88
2023/04/23 00:52:33;;;;;;;1.27;1.17;;;;;;;;;;5017554;28;20267;-87
2023/04/23 00:55:02;;;;;;;1.30;1.20;;;;;;;;;;5016078;28;20233;-86
2023/04/23 00:57:30;;;;;;;1.23;1.23;;;;;;;;;;5016054;28;20238;-87
2023/04/23 00:59:58;;;;;;;1.15;1.15;;;;;;;;;;5017120;28;20210;-88
2023/04/23 01:02:27;;;;;;;1.00;1.00;;;;;;;;;;5017238;28;20195;-87
2023/04/23 01:04:55;;;;;;;1.70;1.63;;;;;;;;;;5017619;28;20229;-87
2023/04/23 01:07:23;;;;;;;1.30;1.20;;;;;;;;;;5017390;28;20654;-86
2023/04/23 01:09:54;;;;;;;1.30;1.20;;;;;;;;;;5017679;28;20233;-88
2023/04/23 01:12:23;;;;;;;1.75;1.25;;;;;;;;;;5017663;28;20598;-88
2023/04/23 01:14:51;;;;;;;1.70;1.60;;;;;;;;;;5016727;28;20321;-87
2023/04/23 01:17:19;;;;;;;1.73;1.63;;;;;;;;;;5017269;28;20836;-88
2023/04/23 01:19:46;;;;;;;1.45;1.35;;;;;;;;;;5015964;28;20203;-88
2023/04/23 01:22:16;;;;;;;1.77;1.63;;;;;;;;;;5014634;28;20249;-88
2023/04/23 01:24:44;;;;;;;1.48;1.38;;;;;;;;;;5014854;28;20627;-88
2023/04/23 01:27:12;;;;;;;1.35;1.25;;;;;;;;;;5015004;28;20655;-88
2023/04/23 01:29:39;;;;;;;1.42;1.33;;;;;;;;;;5014442;28;20234;-87
2023/04/23 01:32:08;;;;;;;1.63;1.40;;;;;;;;;;5014278;28;20297;-87
2023/04/23 01:34:36;;;;;;;1.60;1.50;;;;;;;;;;5014077;28;20254;-88
2023/04/23 01:37:04;;;;;;;1.30;1.30;;;;;;;;;;5014495;28;20209;-87
2023/04/23 01:39:34;;;;;;;1.65;1.55;;;;;;;;;;5014049;28;20196;-87
2023/04/23 01:42:02;;;;;;;1.80;1.70;;;;;;;;;;5014630;28;20219;-88
2023/04/23 01:44:30;;;;;;;1.40;1.30;;;;;;;;;;5014287;28;20218;-88
2023/04/23 01:46:57;;;;;;;2.22;1.77;;;;;;;;;;5006295;28;20204;-89
2023/04/23 01:49:25;;;;;;;3.13;1.42;;;;;;;;;;4994487;28;20291;-88
2023/04/23 01:51:52;;;;;;;2.20;1.83;;;;;;;;;;4994751;28;20235;-88
2023/04/23 01:54:20;;;;;;;2.30;2.10;;;;;;;;;;4994415;28;20757;-89
2023/04/23 01:56:53;;;;;;;1.58;1.48;;;;;;;;;;4994225;28;20634;-86
2023/04/23 01:59:21;;;;;;;1.92;1.80;;;;;;;;;;4994388;28;20585;-89
2023/04/23 02:01:49;;;;;;;1.38;1.23;;;;;;;;;;4994521;28;20203;-88
2023/04/23 02:04:18;;;;;;;1.50;1.40;;;;;;;;;;4994450;28;20224;-88
2023/04/23 02:06:48;;;;;;;1.50;1.40;;;;;;;;;;4994093;28;20199;-88
2023/04/23 02:09:15;;;;;;;1.60;1.45;;;;;;;;;;4994804;28;20237;-88
2023/04/23 02:11:43;;;;;;;1.23;1.23;;;;;;;;;;4994026;28;20290;-88
2023/04/23 02:14:12;;;;;;;1.45;1.35;;;;;;;;;;4993792;28;20318;-87
2023/04/23 02:16:40;;;;;;;1.40;1.30;;;;;;;;;;5013624;28;20290;-87
2023/04/23 02:19:07;;;;;;;1.40;1.30;;;;;;;;;;5013675;28;20298;-88
2023/04/23 02:21:35;;;;;;;1.60;1.50;;;;;;;;;;5013750;28;20245;-88
2023/04/23 02:24:04;;;;;;;1.67;1.58;;;;;;;;;;5013508;28;20261;-88
2023/04/23 02:26:31;;;;;;;1.73;1.63;;;;;;;;;;5013666;28;20203;-87
2023/04/23 02:28:59;;;;;;;1.30;1.20;;;;;;;;;;5013368;28;20203;-87
2023/04/23 02:31:27;;;;;;;1.33;1.33;;;;;;;;;;5013157;28;20245;-86
2023/04/23 02:33:55;;;;;;;2.08;1.88;;;;;;;;;;5013199;28;20218;-87
2023/04/23 02:36:22;;;;;;;2.30;2.20;;;;;;;;;;5013135;28;20234;-86
2023/04/23 02:38:50;;;;;;;1.92;1.80;;;;;;;;;;5013004;28;20289;-86
2023/04/23 02:41:17;;;;;;;2.65;2.45;;;;;;;;;;5013289;28;20238;-85
2023/04/23 02:43:45;;;;;;;2.22;2.03;;;;;;;;;;5013228;28;20239;-85
2023/04/23 02:46:13;;;;;;;2.10;1.90;;;;;;;;;;5013025;28;20294;-85
2023/04/23 02:48:42;;;;;;;1.80;1.70;;;;;;;;;;5012970;28;20225;-86
2023/04/23 02:51:12;;;;;;;1.83;1.73;;;;;;;;;;5013205;28;20633;-86
2023/04/23 02:53:40;;;;;;;3.30;1.83;;;;;;;;;;5012958;28;20696;-86
2023/04/23 02:56:08;;;;;;;2.08;1.98;;;;;;;;;;5012625;28;20223;-86
2023/04/23 02:58:35;;;;;;;1.30;1.20;;;;;;;;;;5012415;28;20289;-85
2023/04/23 03:01:04;;;;;;;2.25;2.00;;;;;;;;;;5012886;28;20234;-84
2023/04/23 03:03:33;;;;;;;1.35;1.30;;;;;;;;;;5012840;28;20202;-85
2023/04/23 03:06:03;;;;;;;1.80;1.70;;;;;;;;;;5012708;28;20202;-85
2023/04/23 03:08:30;;;;;;;1.80;1.70;;;;;;;;;;5012699;28;20650;-86
2023/04/23 03:10:58;;;;;;;1.80;1.70;;;;;;;;;;5013011;28;20238;-86
2023/04/23 03:13:26;;;;;;;1.60;1.50;;;;;;;;;;5012226;28;20226;-85
2023/04/23 03:15:54;;;;;;;2.35;1.50;;;;;;;;;;5012764;28;20215;-85
2023/04/23 03:18:22;;;;;;;1.90;1.75;;;;;;;;;;5012636;28;20213;-86
2023/04/23 03:20:50;;;;;;;1.60;1.50;;;;;;;;;;5012516;28;20294;-85
2023/04/23 03:23:18;;;;;;;1.48;1.38;;;;;;;;;;5012615;28;20812;-86
2023/04/23 03:25:46;;;;;;;1.67;1.58;;;;;;;;;;5012954;28;20250;-85
2023/04/23 03:28:13;;;;;;;1.40;1.30;;;;;;;;;;5016092;28;20289;-84
2023/04/23 03:30:41;;;;;;;1.73;1.63;;;;;;;;;;5015668;28;20269;-85
2023/04/23 03:33:09;;;;;;;1.30;1.30;;;;;;;;;;5016381;28;20230;-86
2023/04/23 03:35:36;;;;;;;1.30;1.20;;;;;;;;;;5016433;28;20237;-86
2023/04/23 03:38:04;;;;;;;2.17;1.80;;;;;;;;;;5016075;28;20246;-85
2023/04/23 03:40:39;;;;;;;1.60;1.50;;;;;;;;;;5016095;28;20257;-86
2023/04/23 03:43:06;;;;;;;1.67;1.58;;;;;;;;;;5015856;28;20210;-86
2023/04/23 03:45:34;;;;;;;1.75;1.65;;;;;;;;;;5016395;28;20739;-86
2023/04/23 03:48:01;;;;;;;1.77;1.67;;;;;;;;;;5015929;28;20684;-86
2023/04/23 03:50:30;;;;;;;1.50;1.40;;;;;;;;;;5016843;28;20448;-86
2023/04/23 03:52:58;;;;;;;1.08;1.08;;;;;;;;;;5016445;28;20293;-86
2023/04/23 03:55:25;;;;;;;1.20;1.08;;;;;;;;;;5015957;28;20353;-86
2023/04/23 03:57:54;;;;;;;1.15;1.00;;;;;;;;;;5015567;28;20654;-86
2023/04/23 04:00:22;;;;;;;1.70;1.60;;;;;;;;;;5016224;28;20637;-86
2023/04/23 04:02:49;;;;;;;1.30;1.20;;;;;;;;;;5015914;28;20211;-85
2023/04/23 04:05:17;;;;;;;1.10;1.10;;;;;;;;;;5016070;28;20306;-86
2023/04/23 04:07:44;;;;;;;1.52;1.42;;;;;;;;;;5015778;28;20353;-85
2023/04/23 04:10:12;;;;;;;1.42;1.33;;;;;;;;;;5015993;28;20202;-85
2023/04/23 04:12:40;;;;;;;1.90;1.80;;;;;;;;;;5015670;28;20294;-86
2023/04/23 04:15:11;;;;;;;1.67;1.58;;;;;;;;;;5015890;28;20235;-86
2023/04/23 04:17:38;;;;;;;2.25;2.05;;;;;;;;;;5015876;28;20184;-86
2023/04/23 04:20:08;;;;;;;1.75;1.55;;;;;;;;;;5016015;28;20210;-86
2023/04/23 04:22:35;;;;;;;1.80;1.70;;;;;;;;;;5016011;28;20556;-85
2023/04/23 04:25:04;;;;;;;1.70;1.60;;;;;;;;;;5015481;28;20671;-85
2023/04/23 04:27:32;;;;;;;2.00;1.23;;;;;;;;;;5015496;28;20191;-86
2023/04/23 04:30:00;;;;;;;1.50;1.40;;;;;;;;;;5015676;28;20258;-87
2023/04/23 04:32:29;;;;;;;1.60;1.50;;;;;;;;;;5015623;28;20210;-86
2023/04/23 04:34:57;;;;;;;1.40;1.35;;;;;;;;;;5015393;28;20313;-85
2023/04/23 04:37:26;;;;;;;1.50;1.40;;;;;;;;;;5015101;28;20294;-86
2023/04/23 04:39:54;;;;;;;1.60;1.50;;;;;;;;;;5015589;28;20257;-85
2023/04/23 04:42:21;;;;;;;1.35;1.25;;;;;;;;;;5015532;28;20206;-85
2023/04/23 04:44:49;;;;;;;1.48;1.40;;;;;;;;;;5015511;28;20285;-87
2023/04/23 04:47:16;;;;;;;1.30;1.20;;;;;;;;;;5015377;28;20210;-86
2023/04/23 04:49:45;;;;;;;2.08;1.90;;;;;;;;;;5014707;28;20207;-86
2023/04/23 04:52:13;;;;;;;1.63;1.52;;;;;;;;;;5015090;28;20249;-86
2023/04/23 04:54:40;;;;;;;1.70;1.60;;;;;;;;;;5014912;28;20262;-86
2023/04/23 04:57:08;;;;;;;1.50;1.40;;;;;;;;;;5014641;28;20313;-85
2023/04/23 04:59:35;;;;;;;1.58;1.48;;;;;;;;;;5014487;28;20286;-86
2023/04/23 05:02:03;;;;;;;1.27;1.20;;;;;;;;;;5014872;28;20209;-85
2023/04/23 05:04:30;;;;;;;2.25;1.50;;;;;;;;;;5015163;28;20322;-86
2023/04/23 05:06:59;;;;;;;2.53;1.80;;;;;;;;;;5014794;28;20231;-85
2023/04/23 05:09:27;;;;;;;1.50;1.40;;;;;;;;;;5014748;28;20647;-86
2023/04/23 05:11:54;;;;;;;1.65;1.55;;;;;;;;;;5014908;28;20287;-85
2023/04/23 05:14:22;;;;;;;1.40;1.30;;;;;;;;;;5015151;28;20223;-85
2023/04/23 05:16:50;;;;;;;1.50;1.40;;;;;;;;;;5014913;28;20233;-86
2023/04/23 05:19:17;;;;;;;1.67;1.58;;;;;;;;;;5014781;28;20203;-86
2023/04/23 05:21:44;;;;;;;1.70;1.60;;;;;;;;;;5014897;28;20293;-85
2023/04/23 05:24:13;;;;;;;1.40;1.30;;;;;;;;;;5014764;28;20250;-86
2023/04/23 05:26:41;;;;;;;2.05;1.95;;;;;;;;;;5014784;28;20207;-86
2023/04/23 05:29:08;;;;;;;1.50;1.40;;;;;;;;;;5014539;28;20289;-84
2023/04/23 05:31:36;;;;;;;1.63;1.52;;;;;;;;;;5014777;28;20720;-86
2023/04/23 05:34:03;;;;;;;2.58;1.67;;;;;;;;;;5014250;28;20666;-86
2023/04/23 05:36:31;;;;;;;2.05;1.95;;;;;;;;;;5014199;28;20771;-86
2023/04/23 05:38:58;;;;;;;2.72;2.53;;;;;;;;;;5013935;28;20214;-86
2023/04/23 05:41:27;;;;;;;1.70;1.60;;;;;;;;;;5014372;28;20638;-87
2023/04/23 05:43:55;;;;;;;1.48;1.38;;;;;;;;;;5014375;28;20717;-86
2023/04/23 05:46:22;;;;;;;2.08;1.98;;;;;;;;;;5014274;28;20634;-88
2023/04/23 05:48:50;;;;;;;1.75;1.65;;;;;;;;;;5013517;28;20230;-87
2023/04/23 05:51:18;;;;;;;1.70;1.60;;;;;;;;;;5013827;28;20253;-87
2023/04/23 05:53:46;;;;;;;1.50;1.40;;;;;;;;;;5014147;28;20286;-87
2023/04/23 05:56:13;;;;;;;1.50;1.40;;;;;;;;;;5014061;28;20310;-87
2023/04/23 05:58:42;;;;;;;1.75;1.65;;;;;;;;;;5013361;28;20306;-88
2023/04/23 06:01:10;;;;;;;1.80;1.70;;;;;;;;;;5013958;28;20207;-87
2023/04/23 06:03:40;;;;;;;1.77;1.67;;;;;;;;;;5014023;28;20205;-87
2023/04/23 06:06:08;;;;;;;2.13;2.03;;;;;;;;;;5013633;28;20202;-86
2023/04/23 06:08:35;;;;;;;2.45;2.25;;;;;;;;;;5013599;28;20676;-87
2023/04/23 06:11:03;;;;;;;2.42;2.22;;;;;;;;;;5013493;28;20234;-88
2023/04/23 06:13:31;;;;;;;2.20;2.10;;;;;;;;;;5013644;28;20273;-87
2023/04/23 06:16:00;;;;;;;2.35;2.22;;;;;;;;;;5013572;28;20205;-87
2023/04/23 06:18:27;;;;;;;1.92;1.83;;;;;;;;;;4994014;28;20210;-85
2023/04/23 06:20:56;;;;;;;2.22;2.08;;;;;;;;;;4994008;28;20286;-88
2023/04/23 06:23:23;;;;;;;1.92;1.83;;;;;;;;;;4994213;28;20283;-87
2023/04/23 06:25:51;;;;;;;2.60;2.40;;;;;;;;;;4993579;28;20265;-87
2023/04/23 06:28:18;;;;;;;2.80;2.60;;;;;;;;;;4993539;28;20208;-87
2023/04/23 06:30:46;;;;;;;2.88;2.67;;;;;;;;;;4993547;28;20227;-87
2023/04/23 06:33:15;;;;;;;2.15;2.05;;;;;;;;;;4993787;28;20242;-87
2023/04/23 06:35:42;;;;;;;2.63;2.42;;;;;;;;;;4993795;28;20306;-87
2023/04/23 06:38:10;;;;;;;2.03;1.88;;;;;;;;;;4993458;28;20319;-88
2023/04/23 06:40:37;;;;;;;3.08;2.88;;;;;;;;;;4993775;28;20192;-88
2023/04/23 06:43:06;;;;;;;2.90;2.70;;;;;;;;;;4993217;28;20206;-87
2023/04/23 06:45:34;;;;;;;2.95;2.65;;;;;;;;;;4993362;28;20691;-88
2023/04/23 06:48:01;;;;;;;2.85;2.65;;;;;;;;;;5009324;28;20218;-87
2023/04/23 06:50:31;;;;;;;2.40;2.30;;;;;;;;;;5013024;28;20203;-87
2023/04/23 06:52:58;;;;;;;1.95;1.80;;;;;;;;;;5013154;28;20676;-87
2023/04/23 06:55:27;;;;;;;2.63;2.42;;;;;;;;;;5013101;28;20225;-88
2023/04/23 06:57:55;;;;;;;2.03;1.92;;;;;;;;;;5012660;28;20309;-87
2023/04/23 07:00:23;;;;;;;2.30;2.10;;;;;;;;;;5012527;28;20203;-87
2023/04/23 07:02:51;;;;;;;2.00;1.90;;;;;;;;;;5012779;28;20306;-87
2023/04/23 07:05:18;;;;;;;1.63;1.52;;;;;;;;;;5012641;28;20219;-87
2023/04/23 07:07:47;;;;;;;1.65;1.55;;;;;;;;;;5013063;28;20656;-87
2023/04/23 07:10:15;;;;;;;2.25;2.10;;;;;;;;;;5013058;28;20282;-87
2023/04/23 07:12:42;;;;;;;2.45;1.80;;;;;;;;;;5012821;28;20233;-87
2023/04/23 07:15:11;;;;;;;2.58;2.38;;;;;;;;;;5012524;28;20305;-87
2023/04/23 07:17:38;;;;;;;2.85;2.63;;;;;;;;;;5012331;28;20238;-88
2023/04/23 07:20:08;;;;;;;2.60;2.40;;;;;;;;;;5012465;28;20286;-87
2023/04/23 07:22:35;;;;;;;2.63;2.42;;;;;;;;;;5012809;28;20203;-87
2023/04/23 07:25:07;;;;;;;2.80;2.60;;;;;;;;;;5012708;28;20310;-87
2023/04/23 07:27:35;;;;;;;2.55;2.35;;;;;;;;;;5013422;28;20214;-87
2023/04/23 07:30:02;;;;;;;2.60;2.40;;;;;;;;;;5012857;28;20698;-87
2023/04/23 07:32:30;;;;;;;2.45;2.28;;;;;;;;;;5012873;28;20302;-86
2023/04/23 07:34:57;;;;;;;2.60;2.25;;;;;;;;;;5013137;28;20223;-86
2023/04/23 07:37:25;;;;;;;2.47;2.28;;;;;;;;;;5012848;28;20223;-86
2023/04/23 07:39:53;;;;;;;2.05;1.92;;;;;;;;;;5012876;28;20235;-87
2023/04/23 07:42:22;;;;;;;1.83;1.73;;;;;;;;;;5012299;28;20206;-87
2023/04/23 07:44:49;;;;;;;2.50;2.30;;;;;;;;;;5012946;28;20692;-86
2023/04/23 07:47:17;;;;;;;2.22;2.10;;;;;;;;;;5012434;28;20253;-87
2023/04/23 07:49:44;;;;;;;3.20;2.13;;;;;;;;;;5012884;28;20281;-86
2023/04/23 07:52:12;;;;;;;2.35;2.15;;;;;;;;;;5012489;28;20239;-87
2023/04/23 07:54:39;;;;;;;2.42;2.22;;;;;;;;;;5013079;28;20310;-88
2023/04/23 07:57:07;;;;;;;4.00;2.97;;;;;;;;;;5012396;28;20591;-86
2023/04/23 07:59:37;;;;;;;3.00;2.80;;;;;;;;;;5012661;28;20291;-86
2023/04/23 08:02:05;;;;;;;2.83;2.63;;;;;;;;;;5012583;28;20206;-86
2023/04/23 08:04:33;;;;;;;2.40;2.22;;;;;;;;;;5012994;28;20225;-86
2023/04/23 08:07:00;;;;;;;2.63;2.42;;;;;;;;;;5012361;28;20286;-85
2023/04/23 08:09:28;;;;;;;2.45;2.30;;;;;;;;;;5012255;28;20199;-87
2023/04/23 08:11:56;;;;;;;2.45;2.30;;;;;;;;;;5012550;28;20202;-87
2023/04/23 08:14:23;;;;;;;2.53;2.33;;;;;;;;;;5015758;28;20318;-88
2023/04/23 08:16:52;;;;;;;3.53;2.95;;;;;;;;;;5016054;28;20209;-86
2023/04/23 08:19:20;;;;;;;5.45;3.00;;;;;;;;;;5015749;28;20219;-87
2023/04/23 08:21:47;;;;;;;2.55;2.35;;;;;;;;;;5015723;28;20213;-87
2023/04/23 08:24:15;;;;;;;2.35;2.17;;;;;;;;;;5015834;28;20660;-86
2023/04/23 08:26:42;;;;;;;2.15;2.05;;;;;;;;;;5015572;28;20298;-86
2023/04/23 08:29:10;;;;;;;3.25;3.05;;;;;;;;;;5015514;28;20298;-86
2023/04/23 08:31:37;;;;;;;2.70;2.50;;;;;;;;;;5016037;28;20230;-87
2023/04/23 08:34:06;;;;;;;3.38;3.13;;;;;;;;;;5014486;28;20258;-86
2023/04/23 08:36:34;;;;;;;3.63;3.35;;;;;;;;;;5015208;28;20290;-86
2023/04/23 08:39:02;;;;;;;2.80;2.60;;;;;;;;;;5015485;28;20309;-86
2023/04/23 08:41:38;;;;;;;3.38;3.08;;;;;;;;;;5015832;28;20234;-86
2023/04/23 08:44:15;;;;;;;2.83;2.63;;;;;;;;;;5015547;28;20770;-86
2023/04/23 08:46:44;;;;;;;2.25;2.05;;;;;;;;;;5014992;28;20313;-86
2023/04/23 08:49:16;;;;;;;2.92;2.72;;;;;;;;;;5016099;28;20290;-86
2023/04/23 08:51:51;;;;;;;3.50;3.20;;;;;;;;;;5016010;28;20214;-86
2023/04/23 08:54:25;;;;;;;2.90;2.70;;;;;;;;;;5015208;28;20219;-87
2023/04/23 08:56:54;;;;;;;3.38;2.50;;;;;;;;;;5014955;28;20629;-86
2023/04/23 08:59:22;;;;;;;2.78;2.58;;;;;;;;;;5014773;28;20222;-86
2023/04/23 09:01:50;;;;;;;2.35;2.15;;;;;;;;;;5015402;28;20570;-87
2023/04/23 09:04:19;;;;;;;3.38;3.08;;;;;;;;;;5015508;28;20314;-87
2023/04/23 09:06:47;;;;;;;3.45;3.15;;;;;;;;;;5016194;28;20203;-87
2023/04/23 09:09:17;;;;;;;2.20;2.00;;;;;;;;;;5014900;28;20298;-86
2023/04/23 09:11:45;;;;;;;2.08;1.98;;;;;;;;;;5015170;28;20640;-87
2023/04/23 09:14:14;;;;;;;2.45;2.25;;;;;;;;;;5014856;28;20310;-86
2023/04/23 09:16:57;;;;;;;3.15;2.92;;;;;;;;;;5015291;28;20211;-87
2023/04/23 09:19:27;;;;;;;2.92;2.72;;;;;;;;;;5015940;28;20281;-86
2023/04/23 09:21:55;;;;;;;2.35;2.22;;;;;;;;;;5014846;28;20235;-86
2023/04/23 09:24:23;;;;;;;2.13;2.03;;;;;;;;;;5014360;28;20329;-87
2023/04/23 09:26:52;;;;;;;2.42;2.22;;;;;;;;;;5015127;28;20203;-87
2023/04/23 09:29:22;;;;;;;2.55;2.35;;;;;;;;;;5014771;28;20183;-86
2023/04/23 09:31:51;;;;;;;2.53;2.40;;;;;;;;;;5014815;28;20228;-87
2023/04/23 09:34:19;;;;;;;2.65;2.45;;;;;;;;;;5014349;28;20221;-86
2023/04/23 09:36:51;;;;;;;4.60;3.65;;;;;;;;;;5014562;28;20195;-86
2023/04/23 09:39:21;;;;;;;2.13;2.03;;;;;;;;;;5014072;28;20310;-87
2023/04/23 09:41:49;;;;;;;2.30;2.10;;;;;;;;;;5014357;28;20226;-87
2023/04/23 09:44:21;;;;;;;2.10;2.00;;;;;;;;;;5014019;28;20258;-86
2023/04/23 09:46:48;;;;;;;2.08;1.98;;;;;;;;;;5014241;28;20202;-87
2023/04/23 09:49:16;;;;;;;2.60;2.40;;;;;;;;;;5013782;28;20301;-87
2023/04/23 09:51:48;;;;;;;2.20;2.00;;;;;;;;;;5013917;28;20719;-86
2023/04/23 09:54:17;;;;;;;2.55;2.40;;;;;;;;;;5014100;28;20219;-87
2023/04/23 09:56:49;;;;;;;2.40;2.20;;;;;;;;;;5013928;28;20574;-84
2023/04/23 09:59:25;;;;;;;2.28;2.13;;;;;;;;;;5013908;28;20226;-87
2023/04/23 10:01:53;;;;;;;2.25;2.15;;;;;;;;;;5013959;28;20245;-87
2023/04/23 10:04:22;;;;;;;2.10;2.00;;;;;;;;;;5013786;28;20221;-86
2023/04/23 10:06:54;;;;;;;1.50;1.50;;;;;;;;;;5014130;28;20614;-87
2023/04/23 10:09:23;;;;;;;2.10;2.00;;;;;;;;;;5013933;28;20194;-87
2023/04/23 10:11:52;;;;;;;3.00;2.10;;;;;;;;;;5013734;28;20203;-86
2023/04/23 10:14:21;;;;;;;2.05;1.95;;;;;;;;;;5014075;28;20223;-86
2023/04/23 10:16:50;;;;;;;3.15;2.00;;;;;;;;;;5013802;28;20656;-86
2023/04/23 10:19:21;;;;;;;1.85;1.75;;;;;;;;;;5013146;28;20265;-87
2023/04/23 10:21:56;;;;;;;1.95;1.85;;;;;;;;;;5013517;28;20180;-86
2023/04/23 10:24:27;;;;;;;2.00;1.90;;;;;;;;;;5014053;28;20591;-86
2023/04/23 10:26:59;;;;;;;2.40;2.20;;;;;;;;;;5013739;28;20283;-85
2023/04/23 10:29:29;;;;;;;2.67;2.47;;;;;;;;;;5013816;28;20188;-87
2023/04/23 10:31:58;;;;;;;2.78;2.53;;;;;;;;;;5013874;28;20257;-86
2023/04/23 10:34:27;;;;;;;2.42;2.22;;;;;;;;;;5013578;28;20222;-86
2023/04/23 10:36:58;;;;;;;2.40;2.20;;;;;;;;;;5012779;28;20207;-87
2023/04/23 10:39:28;;;;;;;2.30;2.20;;;;;;;;;;5013059;28;20339;-87
2023/04/23 10:41:56;;;;;;;2.50;1.92;;;;;;;;;;5013291;28;20281;-87
2023/04/23 10:44:31;;;;;;;2.55;2.35;;;;;;;;;;5013187;28;20309;-86
2023/04/23 10:47:00;;;;;;;1.73;1.63;;;;;;;;;;5013244;28;20281;-86
2023/04/23 10:49:32;;;;;;;1.88;1.77;;;;;;;;;;5013204;28;20245;-87
2023/04/23 10:52:02;;;;;;;1.70;1.60;;;;;;;;;;5013496;28;20183;-86
2023/04/23 10:54:31;;;;;;;2.08;1.88;;;;;;;;;;5013316;28;20250;-85
2023/04/23 10:57:02;;;;;;;1.67;1.58;;;;;;;;;;5013240;28;20297;-87
2023/04/23 10:59:31;;;;;;;1.92;1.83;;;;;;;;;;5013347;28;20254;-86
2023/04/23 11:01:59;;;;;;;2.40;2.20;;;;;;;;;;5013118;28;20230;-86
2023/04/23 11:07:33;;;;;;;1.83;1.73;;;;;;;;;;4971453;28;20196;-86
2023/04/23 11:10:10;;;;;;;2.17;1.98;;;;;;;;;;5012785;28;20203;-86
2023/04/23 11:12:40;;;;;;;1.85;1.75;;;;;;;;;;5012881;28;20289;-87
2023/04/23 11:15:12;;;;;;;1.58;1.48;;;;;;;;;;5013482;28;20321;-86
2023/04/23 11:18:01;;;;;;;1.30;1.20;;;;;;;;;;5012644;28;20202;-87
2023/04/23 11:20:29;;;;;;;1.90;1.70;;;;;;;;;;5009444;28;20227;-85
2023/04/23 11:22:58;;;;;;;1.67;1.58;;;;;;;;;;5012857;28;20692;-87
2023/04/23 11:25:27;;;;;;;1.95;1.85;;;;;;;;;;5012853;28;20258;-86
2023/04/23 11:27:57;;;;;;;2.13;2.03;;;;;;;;;;5012877;28;20238;-87
2023/04/23 11:30:26;;;;;;;1.88;1.60;;;;;;;;;;5013155;28;20634;-87
2023/04/23 11:32:57;;;;;;;2.20;1.70;;;;;;;;;;5012716;28;20205;-87
2023/04/23 11:35:27;;;;;;;3.00;1.98;;;;;;;;;;5012335;28;20215;-87
2023/04/23 11:37:56;;;;;;;1.90;1.80;;;;;;;;;;5012416;28;20253;-87
2023/04/23 11:40:24;;;;;;;1.80;1.70;;;;;;;;;;5012658;28;20660;-86
2023/04/23 11:42:53;;;;;;;1.73;1.63;;;;;;;;;;5012708;28;20206;-87
2023/04/23 11:45:23;;;;;;;1.20;1.20;;;;;;;;;;5012486;28;20273;-87
2023/04/23 11:47:54;;;;;;;2.17;1.50;;;;;;;;;;5013411;28;20215;-86
2023/04/23 11:50:24;;;;;;;1.65;1.55;;;;;;;;;;5016537;28;20191;-86
2023/04/23 11:52:52;;;;;;;1.90;1.42;;;;;;;;;;5016710;28;20273;-87
2023/04/23 11:55:22;;;;;;;1.40;1.30;;;;;;;;;;5016354;28;20715;-87
2023/04/23 11:57:51;;;;;;;1.13;1.13;;;;;;;;;;5016342;28;20210;-87
2023/04/23 12:00:21;;;;;;;1.65;1.55;;;;;;;;;;5016238;28;20223;-87
2023/04/23 12:02:53;;;;;;;1.20;1.20;;;;;;;;;;5016863;28;20644;-86
2023/04/23 12:05:22;;;;;;;1.40;1.30;;;;;;;;;;5016351;28;20315;-87
2023/04/23 12:07:51;;;;;;;1.27;1.17;;;;;;;;;;5016033;28;20297;-87
2023/04/23 12:10:21;;;;;;;1.35;1.30;;;;;;;;;;5016111;28;20214;-87
2023/04/23 12:12:53;;;;;;;1.20;1.20;;;;;;;;;;5016012;28;20704;-87
2023/04/23 12:15:20;;;;;;;1.50;1.40;;;;;;;;;;5016901;28;20306;-87
2023/04/23 12:18:09;;;;;;;1.30;1.20;;;;;;;;;;5016004;28;20277;-87
2023/04/23 12:20:39;;;;;;;1.77;1.63;;;;;;;;;;5016056;28;20214;-87
2023/04/23 12:23:07;;;;;;;1.38;1.27;;;;;;;;;;5015812;28;20207;-86
2023/04/23 12:25:36;;;;;;;1.60;1.50;;;;;;;;;;5015600;28;20235;-88
2023/04/23 12:28:05;;;;;;;1.33;1.27;;;;;;;;;;5015670;28;20207;-87
2023/04/23 12:30:35;;;;;;;1.20;1.10;;;;;;;;;;5015046;28;20200;-87
2023/04/23 12:33:03;;;;;;;1.23;1.00;;;;;;;;;;5015744;28;20221;-87
2023/04/23 12:35:39;;;;;;;1.10;1.10;;;;;;;;;;5015514;28;20270;-87
2023/04/23 12:38:07;;;;;;;1.00;1.00;;;;;;;;;;5015224;28;20197;-87
2023/04/23 12:40:36;;;;;;;2.00;1.30;;;;;;;;;;5015620;28;20821;-87
2023/04/23 12:43:03;;;;;;;1.20;1.10;;;;;;;;;;5015754;28;20294;-87
2023/04/23 12:45:38;;;;;;;1.48;1.38;;;;;;;;;;5015679;28;20313;-84
2023/04/23 12:48:05;;;;;;;1.33;1.20;;;;;;;;;;5015181;28;20202;-87
2023/04/23 12:50:33;;;;;;;0.90;0.90;;;;;;;;;;5015314;28;20286;-87
2023/04/23 12:53:00;;;;;;;0.98;0.98;;;;;;;;;;5015472;28;20207;-87
2023/04/23 12:55:28;;;;;;;0.90;0.90;;;;;;;;;;5014709;28;20225;-87
2023/04/23 12:57:58;;;;;;;1.00;1.00;;;;;;;;;;5015048;28;20306;-85
2023/04/23 13:00:26;;;;;;;1.08;1.08;;;;;;;;;;5015331;28;20668;-86
2023/04/23 13:02:55;;;;;;;1.05;0.95;;;;;;;;;;5015514;28;20205;-85
2023/04/23 13:05:23;;;;;;;1.23;1.05;;;;;;;;;;5015137;28;20222;-86
2023/04/23 13:07:52;;;;;;;1.65;0.90;;;;;;;;;;5014999;28;20237;-86
2023/04/23 13:10:20;;;;;;;1.00;1.00;;;;;;;;;;5015363;28;20203;-85
2023/04/23 13:12:47;;;;;;;1.42;1.05;;;;;;;;;;5015348;28;20620;-86
2023/04/23 13:15:16;;;;;;;2.75;1.60;;;;;;;;;;5015679;28;20309;-87
2023/04/23 13:17:46;;;;;;;1.20;1.10;;;;;;;;;;5015363;28;20659;-84
2023/04/23 13:20:13;;;;;;;1.10;1.00;;;;;;;;;;5015070;28;20199;-86
2023/04/23 13:22:41;;;;;;;2.22;2.03;;;;;;;;;;5014970;28;20298;-86
2023/04/23 13:25:09;;;;;;;1.80;1.65;;;;;;;;;;5015261;28;20309;-87
2023/04/23 13:27:37;;;;;;;1.40;1.30;;;;;;;;;;5015060;28;20253;-85
2023/04/23 13:30:06;;;;;;;1.10;1.10;;;;;;;;;;5014706;28;20634;-87
2023/04/23 13:32:35;;;;;;;1.17;1.17;;;;;;;;;;5015834;28;20286;-86
2023/04/23 13:35:03;;;;;;;1.60;1.50;;;;;;;;;;5014590;28;20330;-86
2023/04/23 13:37:31;;;;;;;1.45;1.33;;;;;;;;;;5015046;28;20251;-85
2023/04/23 13:39:59;;;;;;;1.52;1.42;;;;;;;;;;5015760;28;20198;-85
2023/04/23 13:42:26;;;;;;;1.30;1.20;;;;;;;;;;5015530;28;20289;-85
2023/04/23 13:44:55;;;;;;;1.40;1.30;;;;;;;;;;5015175;28;20695;-85
2023/04/23 13:47:22;;;;;;;1.73;1.40;;;;;;;;;;5003504;28;20274;-85
2023/04/23 13:49:51;;;;;;;1.50;1.40;;;;;;;;;;4995483;28;20290;-86
2023/04/23 13:52:18;;;;;;;1.45;1.35;;;;;;;;;;4995631;28;20283;-85
2023/04/23 13:54:47;;;;;;;1.48;1.35;;;;;;;;;;4994989;28;20226;-86
2023/04/23 13:57:15;;;;;;;2.75;1.92;;;;;;;;;;5013173;28;20206;-85
2023/04/23 13:59:42;;;;;;;1.50;1.40;;;;;;;;;;5014250;28;20187;-86
2023/04/23 14:02:10;;;;;;;1.50;1.40;;;;;;;;;;5014003;28;20250;-86
2023/04/23 14:04:38;;;;;;;1.45;1.35;;;;;;;;;;5014491;28;20305;-86
2023/04/23 14:07:07;;;;;;;1.58;1.48;;;;;;;;;;5014438;28;20206;-86
2023/04/23 14:09:35;;;;;;;0.90;0.90;;;;;;;;;;5013683;28;20234;-86
2023/04/23 14:12:02;;;;;;;1.23;1.23;;;;;;;;;;5013677;28;20268;-86
2023/04/23 14:14:30;;;;;;;1.50;1.40;;;;;;;;;;5014204;28;20261;-87
2023/04/23 14:16:58;;;;;;;1.92;1.20;;;;;;;;;;5007188;28;20199;-86
2023/04/23 14:19:25;;;;;;;1.10;1.10;;;;;;;;;;4994434;28;20214;-86
2023/04/23 14:21:53;;;;;;;2.03;1.45;;;;;;;;;;4995920;28;20219;-86
2023/04/23 14:24:29;;;;;;;5.03;1.60;;;;;;;;;;4995227;28;20224;-87
2023/04/23 14:26:56;;;;;;;1.60;1.50;;;;;;;;;;4994958;28;20231;-86
2023/04/23 14:29:29;;;;;;;1.80;1.70;;;;;;;;;;4993894;28;20231;-85
2023/04/23 14:31:57;;;;;;;1.98;1.88;;;;;;;;;;5010370;28;20227;-86
2023/04/23 14:34:25;;;;;;;2.38;1.33;;;;;;;;;;5013818;28;20306;-85
2023/04/23 14:36:53;;;;;;;1.20;1.20;;;;;;;;;;5014042;28;20719;-86
2023/04/23 14:39:21;;;;;;;2.30;2.10;;;;;;;;;;5013652;28;20200;-86
2023/04/23 14:41:50;;;;;;;1.80;1.70;;;;;;;;;;5014659;28;20653;-86
2023/04/23 14:44:18;;;;;;;1.65;1.55;;;;;;;;;;5017323;28;20219;-87
2023/04/23 14:46:46;;;;;;;1.55;1.45;;;;;;;;;;5014783;28;20207;-86
2023/04/23 14:49:14;;;;;;;1.60;1.50;;;;;;;;;;5013798;28;20269;-86
2023/04/23 14:51:41;;;;;;;1.65;1.40;;;;;;;;;;5013787;28;20700;-87
2023/04/23 14:54:09;;;;;;;1.88;1.67;;;;;;;;;;5013711;28;20309;-86